Time;durP1;ratioP1;P1;durP2;ratioP2;P2;SDS_P1;SDS_P2;PMS_P1;PMS_P2;Temp;Humidity;BMP_temperature;BMP_pressure;BME280_temperature;BME280_humidity;BME280_pressure;Samples;Min_cycle;Max_cycle;Signal;HPM_P1;HPM_P2
2022/07/31 00:00:48;;;;;;;;;;;;;;;19.94;99.19;99828.85;1457301;89;20991;-82
2022/07/31 00:03:14;;;;;;;;;;;;;;;19.96;97.09;99838.86;1459634;89;20278;-82
2022/07/31 00:05:40;;;;;;;;;;;;;;;19.95;97.56;99835.88;1459119;89;20382;-82
2022/07/31 00:08:07;;;;;;;;;;;;;;;19.95;98.34;99829.98;1454820;89;20336;-82
2022/07/31 00:10:34;;;;;;;;;;;;;;;19.98;97.10;99830.06;1452618;89;20880;-82
2022/07/31 00:13:00;;;;;;;;;;;;;;;19.98;97.07;99823.34;1455754;89;20286;-81
2022/07/31 00:15:26;;;;;;;;;;;;;;;20.01;96.96;99830.95;1456272;89;20292;-81
2022/07/31 00:17:52;;;;;;;;;;;;;;;19.99;98.28;99828.48;1451050;90;20271;-81
2022/07/31 00:20:18;;;;;;;;;;;;;;;19.97;97.04;99828.44;1452060;89;20329;-82
2022/07/31 00:22:46;;;;;;;;;;;;;;;19.97;97.48;99821.72;1467250;88;20298;-81
2022/07/31 00:25:14;;;;;;;;;;;;;;;19.95;97.11;99823.80;1462568;88;20593;-81
2022/07/31 00:27:40;;;;;;;;;;;;;;;19.92;97.00;99819.69;1447489;88;20449;-81
2022/07/31 00:30:07;;;;;;;;;;;;;;;19.90;97.70;99822.30;1455498;88;20395;-81
2022/07/31 00:32:33;;;;;;;;;;;;;;;19.87;98.60;99828.12;1450716;88;20821;-81
2022/07/31 00:35:01;;;;;;;;;;;;;;;19.83;98.19;99823.20;1458093;88;20293;-81
2022/07/31 00:37:28;;;;;;;;;;;;;;;19.80;97.94;99820.95;1449844;88;21723;-81
2022/07/31 00:39:54;;;;;;;;;;;;;;;19.80;98.19;99817.45;1464269;88;20279;-81
2022/07/31 00:42:23;;;;;;;;;;;;;;;19.80;98.47;99820.95;1471107;88;20284;-81
2022/07/31 00:44:50;;;;;;;;;;;;;;;19.79;97.70;99826.04;1466840;88;20968;-82
2022/07/31 00:47:18;;;;;;;;;;;;;;;19.77;98.67;99817.91;1442979;89;20321;-81
2022/07/31 00:49:45;;;;;;;;;;;;;;;19.75;98.16;99820.80;1435519;88;20425;-82
2022/07/31 00:52:12;;;;;;;;;;;;;;;19.74;99.76;99823.72;1451998;88;20307;-81
2022/07/31 00:54:40;;;;;;;;;;;;;;;19.72;98.30;99819.91;1457781;88;20271;-82
2022/07/31 00:57:07;;;;;;;;;;;;;;;19.73;98.27;99820.19;1442622;90;20390;-81
2022/07/31 00:59:33;;;;;;;;;;;;;;;19.72;99.30;99813.19;1451518;90;20278;-82
2022/07/31 01:02:01;;;;;;;;;;;;;;;19.71;99.01;99814.73;1449697;90;20298;-82
2022/07/31 01:04:28;;;;;;;;;;;;;;;19.71;99.00;99815.59;1450811;88;20404;-81
2022/07/31 01:06:54;;;;;;;;;;;;;;;19.70;98.40;99805.88;1465017;88;20468;-82
2022/07/31 01:09:28;;;;;;;;;;;;;;;19.67;99.38;99811.69;1461425;88;20293;-82
2022/07/31 01:12:06;;;;;;;;;;;;;;;19.66;98.69;99811.92;1438896;89;20337;-82
2022/07/31 01:14:38;;;;;;;;;;;;;;;19.66;99.52;99810.05;1436746;90;20281;-82
2022/07/31 01:17:05;;;;;;;;;;;;;;;19.67;98.49;99813.55;1440879;90;20362;-81
2022/07/31 01:19:44;;;;;;;;;;;;;;;19.63;98.37;99814.50;1471032;87;20305;-82
2022/07/31 01:22:36;;;;;;;;;;;;;;;19.62;98.71;99815.52;1458732;88;20908;-82
2022/07/31 01:25:06;;;;;;;;;;;;;;;19.63;98.47;99811.00;1457504;88;20323;-82
2022/07/31 01:27:51;;;;;;;;;;;;;;;19.62;98.57;99820.89;1460853;88;20299;-81
2022/07/31 01:30:20;;;;;;;;;;;;;;;19.61;98.71;99819.26;1446792;90;20432;-82
2022/07/31 01:32:49;;;;;;;;;;;;;;;19.59;98.71;99810.10;1464025;88;20366;-82
2022/07/31 01:35:24;;;;;;;;;;;;;;;19.59;98.62;99807.91;1441163;90;20903;-82
2022/07/31 01:37:57;;;;;;;;;;;;;;;19.59;98.23;99807.91;1430551;90;20300;-81
2022/07/31 01:40:36;;;;;;;;;;;;;;;19.60;98.35;99807.70;1437641;90;20329;-82
2022/07/31 01:43:05;;;;;;;;;;;;;;;19.60;98.08;99805.55;1455582;88;20432;-81
2022/07/31 01:45:40;;;;;;;;;;;;;;;19.59;98.02;99809.25;1467629;88;20424;-81
2022/07/31 01:48:08;;;;;;;;;;;;;;;19.58;97.71;99804.94;1469457;88;20298;-81
2022/07/31 01:50:36;;;;;;;;;;;;;;;19.58;97.40;99794.20;1457851;88;20305;-81
2022/07/31 01:53:02;;;;;;;;;;;;;;;19.58;98.15;99799.57;1448688;89;20268;-81
2022/07/31 01:55:28;;;;;;;;;;;;;;;19.55;98.38;99794.65;1462711;88;20276;-81
2022/07/31 01:57:58;;;;;;;;;;;;;;;19.53;97.55;99793.52;1470261;88;20425;-81
2022/07/31 02:00:25;;;;;;;;;;;;;;;19.49;97.82;99784.27;1446135;88;20312;-81
2022/07/31 02:02:51;;;;;;;;;;;;;;;19.50;96.99;99783.75;1455801;89;20275;-81
2022/07/31 02:05:24;;;;;;;;;;;;;;;19.47;97.30;99774.80;1454354;88;20298;-81
2022/07/31 02:07:51;;;;;;;;;;;;;;;19.46;98.13;99778.54;1447830;88;20927;-81
2022/07/31 02:10:24;;;;;;;;;;;;;;;19.45;96.71;99780.90;1460590;88;20391;-81
2022/07/31 02:12:51;;;;;;;;;;;;;;;19.43;96.94;99778.98;1462510;88;20384;-81
2022/07/31 02:15:18;;;;;;;;;;;;;;;19.39;97.22;99774.06;1449188;89;20412;-81
2022/07/31 02:17:46;;;;;;;;;;;;;;;19.36;97.03;99769.63;1450903;88;20308;-81
2022/07/31 02:20:13;;;;;;;;;;;;;;;19.33;96.95;99769.58;1464935;88;20417;-80
2022/07/31 02:22:43;;;;;;;;;;;;;;;19.29;97.00;99764.87;1467410;88;20297;-81
2022/07/31 02:25:11;;;;;;;;;;;;;;;19.25;98.94;99768.52;1462628;88;20276;-81
2022/07/31 02:27:44;;;;;;;;;;;;;;;19.24;97.14;99770.88;1446303;89;20435;-80
2022/07/31 02:30:12;;;;;;;;;;;;;;;19.22;96.99;99772.98;1450856;89;20301;-81
2022/07/31 02:32:38;;;;;;;;;;;;;;;19.18;97.31;99762.90;1457478;88;20335;-81
2022/07/31 02:35:06;;;;;;;;;;;;;;;19.16;96.83;99769.31;1469916;88;20531;-81
2022/07/31 02:37:41;;;;;;;;;;;;;;;19.13;97.99;99762.20;1465302;88;20645;-80
2022/07/31 02:40:12;;;;;;;;;;;;;;;19.08;97.52;99764.23;1451190;89;20276;-80
2022/07/31 02:42:40;;;;;;;;;;;;;;;19.05;97.28;99757.96;1450954;89;20863;-80
2022/07/31 02:45:09;;;;;;;;;;;;;;;19.02;97.64;99757.06;1536843;89;20247;-80
2022/07/31 02:47:39;;;;;;;;;;;;;;;18.99;97.58;99756.66;1455711;88;20285;-81
2022/07/31 02:50:06;;;;;;;;;;;;;;;18.95;98.90;99758.95;1461959;88;20409;-81
2022/07/31 02:52:32;;;;;;;;;;;;;;;18.91;98.36;99753.22;1531124;88;20353;-80
2022/07/31 02:55:00;;;;;;;;;;;;;;;18.88;98.31;99749.64;1478013;90;20271;-80
2022/07/31 02:57:26;;;;;;;;;;;;;;;18.84;99.16;99748.41;1532463;88;20286;-80
2022/07/31 02:59:52;;;;;;;;;;;;;;;18.80;99.20;99747.22;1536380;88;20298;-80
2022/07/31 03:02:18;;;;;;;;;;;;;;;18.76;98.53;99742.50;1555668;88;20247;-82
2022/07/31 03:04:44;;;;;;;;;;;;;;;18.70;98.99;99748.17;1422780;88;20231;-82
2022/07/31 03:07:10;;;;;;;;;;;;;;;18.64;100.00;99746.37;1407989;88;20284;-82
2022/07/31 03:09:36;;;;;;;;;;;;;;;18.60;99.50;99745.17;1455630;89;21050;-83
2022/07/31 03:12:02;;;;;;;;;;;;;;;18.51;100.00;99746.48;1447727;89;20345;-82
2022/07/31 03:14:29;;;;;;;;;;;;;;;18.44;100.00;99733.95;1453518;89;20376;-82
2022/07/31 03:16:56;;;;;;;;;;;;;;;18.42;100.00;99736.01;1458196;88;20313;-82
2022/07/31 03:19:23;;;;;;;;;;;;;;;18.39;100.00;99743.14;1454175;88;20382;-82
2022/07/31 03:21:49;;;;;;;;;;;;;;;18.38;100.00;99740.66;1446648;89;20330;-82
2022/07/31 03:24:17;;;;;;;;;;;;;;;18.36;100.00;99747.59;1466183;88;20300;-82
2022/07/31 03:26:44;;;;;;;;;;;;;;;18.36;100.00;99743.57;1449870;88;20313;-82
2022/07/31 03:29:12;;;;;;;;;;;;;;;18.36;100.00;99739.55;1449881;89;20284;-82
2022/07/31 03:31:38;;;;;;;;;;;;;;;18.35;100.00;99748.61;1447553;89;20294;-81
2022/07/31 03:34:05;;;;;;;;;;;;;;;18.33;100.00;99750.70;1455533;89;20820;-81
2022/07/31 03:36:30;;;;;;;;;;;;;;;18.34;100.00;99746.97;1456926;88;20322;-81
2022/07/31 03:38:58;;;;;;;;;;;;;;;18.34;99.67;99746.16;1459902;88;20374;-81
2022/07/31 03:41:25;;;;;;;;;;;;;;;18.32;100.00;99748.22;1446961;89;21538;-81
2022/07/31 03:43:51;;;;;;;;;;;;;;;18.28;100.00;99747.84;1445211;90;20277;-82
2022/07/31 03:46:21;;;;;;;;;;;;;;;18.26;100.00;99745.36;1443136;89;20315;-82
2022/07/31 03:48:50;;;;;;;;;;;;;;;18.25;100.00;99750.95;1444989;89;20301;-81
2022/07/31 03:51:20;;;;;;;;;;;;;;;18.23;100.00;99743.11;1447098;89;20270;-82
2022/07/31 03:53:47;;;;;;;;;;;;;;;18.23;100.00;99748.99;1457705;88;20398;-81
2022/07/31 03:56:23;;;;;;;;;;;;;;;18.22;100.00;99756.73;1466230;88;20365;-81
2022/07/31 03:58:49;;;;;;;;;;;;;;;18.22;100.00;99748.70;1459140;89;20395;-81
2022/07/31 04:01:16;;;;;;;;;;;;;;;18.21;100.00;99750.56;1448629;89;20279;-81
2022/07/31 04:03:42;;;;;;;;;;;;;;;18.22;100.00;99748.70;1461093;88;20423;-81
2022/07/31 04:06:08;;;;;;;;;;;;;;;18.18;100.00;99747.46;1451133;89;20344;-81
2022/07/31 04:08:34;;;;;;;;;;;;;;;18.15;100.00;99750.57;1442186;90;20286;-81
2022/07/31 04:11:01;;;;;;;;;;;;;;;18.11;100.00;99749.37;1447072;90;20337;-81
2022/07/31 04:13:27;;;;;;;;;;;;;;;18.08;100.00;99747.94;1445458;89;20292;-82
2022/07/31 04:15:53;;;;;;;;;;;;;;;18.07;100.00;99754.34;1451963;88;20553;-81
2022/07/31 04:18:19;;;;;;;;;;;;;;;18.07;100.00;99750.81;1447414;89;20901;-80
2022/07/31 04:20:45;;;;;;;;;;;;;;;18.03;100.00;99755.25;1440358;88;20328;-80
2022/07/31 04:23:11;;;;;;;;;;;;;;;17.99;100.00;99752.70;1478558;88;20405;-80
2022/07/31 04:25:37;;;;;;;;;;;;;;;17.95;100.00;99752.84;1452623;88;20314;-80
2022/07/31 04:28:03;;;;;;;;;;;;;;;17.92;100.00;99750.56;1445746;89;20520;-80
2022/07/31 04:30:29;;;;;;;;;;;;;;;17.93;100.00;99760.25;1445468;89;20291;-80
2022/07/31 04:33:01;;;;;;;;;;;;;;;17.93;100.00;99764.27;1453617;89;20374;-81
2022/07/31 04:35:27;;;;;;;;;;;;;;;17.96;100.00;99766.52;1446557;88;20439;-80
2022/07/31 04:37:53;;;;;;;;;;;;;;;17.97;100.00;99753.43;1457250;88;20283;-81
2022/07/31 04:40:20;;;;;;;;;;;;;;;18.03;100.00;99754.44;1461028;89;20293;-81
2022/07/31 04:42:46;;;;;;;;;;;;;;;18.09;100.00;99756.78;1448618;90;20353;-81
2022/07/31 04:45:12;;;;;;;;;;;;;;;18.19;100.00;99757.16;1447207;90;20411;-81
2022/07/31 04:47:39;;;;;;;;;;;;;;;18.25;100.00;99758.98;1444444;90;20292;-81
2022/07/31 04:50:06;;;;;;;;;;;;;;;18.30;100.00;99755.64;1444518;90;20412;-82
2022/07/31 04:52:33;;;;;;;;;;;;;;;18.33;100.00;99754.72;1442891;90;20337;-82
2022/07/31 04:55:00;;;;;;;;;;;;;;;18.41;100.00;99752.28;1422385;91;20315;-82
2022/07/31 04:57:26;;;;;;;;;;;;;;;18.47;100.00;99758.12;1435070;90;20420;-82
2022/07/31 04:59:51;;;;;;;;;;;;;;;18.57;100.00;99755.80;1427985;89;20303;-83
2022/07/31 05:02:17;;;;;;;;;;;;;;;18.62;100.00;99761.34;1418503;91;20310;-81
2022/07/31 05:04:43;;;;;;;;;;;;;;;18.70;99.78;99764.26;1425206;90;20530;-81
2022/07/31 05:07:09;;;;;;;;;;;;;;;18.71;99.38;99760.56;1410735;92;20546;-81
2022/07/31 05:09:36;;;;;;;;;;;;;;;18.73;98.15;99766.53;1405237;92;20299;-81
2022/07/31 05:12:02;;;;;;;;;;;;;;;18.76;98.16;99768.81;1413063;92;20311;-81
2022/07/31 05:14:28;;;;;;;;;;;;;;;18.81;98.71;99775.66;1413180;91;20425;-81
2022/07/31 05:16:54;;;;;;;;;;;;;;;18.88;97.73;99776.45;1397912;91;20381;-80
2022/07/31 05:19:20;;;;;;;;;;;;;;;18.90;97.35;99777.06;1402669;92;20296;-81
2022/07/31 05:21:46;;;;;;;;;;;;;;;18.86;95.90;99787.90;1419441;92;20421;-82
2022/07/31 05:24:14;;;;;;;;;;;;;;;18.89;95.88;99784.78;1416829;92;20313;-82
2022/07/31 05:26:41;;;;;;;;;;;;;;;18.99;96.23;99783.47;1412125;91;20398;-81
2022/07/31 05:29:07;;;;;;;;;;;;;;;19.09;96.38;99778.45;1410085;92;20413;-81
2022/07/31 05:31:33;;;;;;;;;;;;;;;19.16;95.01;99774.68;1436748;89;20479;-82
2022/07/31 05:33:59;;;;;;;;;;;;;;;19.21;94.38;99779.37;1437897;89;20421;-81
2022/07/31 05:36:26;;;;;;;;;;;;;;;19.31;94.47;99779.70;1457490;89;20323;-81
2022/07/31 05:38:52;;;;;;;;;;;;;;;19.41;93.49;99782.40;1457435;88;20276;-81
2022/07/31 05:41:18;;;;;;;;;;;;;;;19.46;92.85;99783.91;1439761;89;20279;-80
2022/07/31 05:43:43;;;;;;;;;;;;;;;19.52;91.67;99779.80;1446352;89;20335;-80
2022/07/31 05:46:13;;;;;;;;;;;;;;;19.56;91.13;99782.86;1430785;89;20578;-80
2022/07/31 05:48:40;;;;;;;;;;;;;;;19.65;91.55;99773.99;1424646;91;20427;-82
2022/07/31 05:51:09;;;;;;;;;;;;;;;19.71;90.19;99774.47;1430139;89;20337;-85
2022/07/31 05:53:36;;;;;;;;;;;;;;;19.72;88.74;99776.95;1401897;92;20479;-85
2022/07/31 05:56:02;;;;;;;;;;;;;;;19.77;89.54;99777.63;1432441;89;20320;-85
2022/07/31 05:58:31;;;;;;;;;;;;;;;19.79;88.94;99781.73;1445123;89;20297;-86
2022/07/31 06:00:57;;;;;;;;;;;;;;;19.83;89.61;99779.42;1446861;90;20432;-86
2022/07/31 06:03:28;;;;;;;;;;;;;;;19.93;87.92;99778.88;1435593;89;21215;-86
2022/07/31 06:05:56;;;;;;;;;;;;;;;19.94;87.23;99776.48;1445362;90;20299;-85
2022/07/31 06:08:22;;;;;;;;;;;;;;;19.97;87.41;99772.03;1441973;89;20330;-85
2022/07/31 06:10:50;;;;;;;;;;;;;;;20.00;87.11;99772.92;1436503;90;20277;-86
2022/07/31 06:13:17;;;;;;;;;;;;;;;20.14;86.46;99774.41;1439759;90;20309;-86
2022/07/31 06:15:43;;;;;;;;;;;;;;;20.32;86.68;99772.20;1447421;89;20412;-86
2022/07/31 06:18:09;;;;;;;;;;;;;;;20.45;86.64;99775.22;1434547;89;20286;-86
2022/07/31 06:20:35;;;;;;;;;;;;;;;20.50;85.87;99779.39;1435664;89;20335;-86
2022/07/31 06:23:01;;;;;;;;;;;;;;;20.52;85.32;99777.30;1436650;90;20323;-86
2022/07/31 06:25:28;;;;;;;;;;;;;;;20.46;84.40;99783.59;1441861;90;20376;-85
2022/07/31 06:27:55;;;;;;;;;;;;;;;20.36;82.48;99779.28;1456055;89;20275;-90
2022/07/31 06:30:22;;;;;;;;;;;;;;;20.26;82.95;99784.67;1447745;89;20290;-90
2022/07/31 06:32:48;;;;;;;;;;;;;;;20.22;82.73;99788.84;1428651;89;20331;-90
2022/07/31 06:35:14;;;;;;;;;;;;;;;20.26;82.37;99786.55;1442613;89;21219;-88
2022/07/31 06:37:45;;;;;;;;;;;;;;;20.35;81.96;99784.37;1436142;90;20338;-88
2022/07/31 06:40:13;;;;;;;;;;;;;;;20.45;82.40;99790.00;1441792;89;20291;-88
2022/07/31 06:42:39;;;;;;;;;;;;;;;20.53;81.71;99791.59;1429713;91;20309;-89
2022/07/31 06:45:06;;;;;;;;;;;;;;;20.57;80.81;99793.61;1422312;91;20310;-89
2022/07/31 06:47:32;;;;;;;;;;;;;;;20.64;80.76;99787.59;1433545;90;20867;-89
2022/07/31 06:49:58;;;;;;;;;;;;;;;20.68;79.96;99789.30;1445786;89;20276;-88
2022/07/31 06:52:23;;;;;;;;;;;;;;;20.80;80.18;99786.63;1439963;90;20429;-89
2022/07/31 06:54:50;;;;;;;;;;;;;;;20.87;78.52;99784.68;1431234;88;20548;-90
2022/07/31 06:57:22;;;;;;;;;;;;;;;20.86;77.35;99788.40;1443758;89;20398;-88
2022/07/31 06:59:49;;;;;;;;;;;;;;;20.91;78.37;99785.84;1433845;89;20372;-88
2022/07/31 07:02:15;;;;;;;;;;;;;;;20.95;78.81;99792.42;1427833;89;20312;-89
2022/07/31 07:04:41;;;;;;;;;;;;;;;21.08;77.17;99781.42;1434581;89;20349;-89
2022/07/31 07:07:07;;;;;;;;;;;;;;;21.19;77.36;99780.63;1437076;90;20315;-89
2022/07/31 07:09:33;;;;;;;;;;;;;;;21.31;76.35;99779.81;1416837;91;20499;-88
2022/07/31 07:11:59;;;;;;;;;;;;;;;21.37;74.58;99777.56;1471756;88;20322;-89
2022/07/31 07:14:27;;;;;;;;;;;;;;;21.35;71.99;99781.81;1441292;88;20959;-89
2022/07/31 07:16:53;;;;;;;;;;;;;;;21.34;73.85;99782.03;1445863;88;20308;-88
2022/07/31 07:19:21;;;;;;;;;;;;;;;21.24;73.52;99788.01;1460541;88;20365;-87
2022/07/31 07:21:47;;;;;;;;;;;;;;;21.28;74.60;99785.66;1466715;88;20819;-87
2022/07/31 07:24:13;;;;;;;;;;;;;;;21.26;74.19;99781.88;1448274;88;20285;-89
2022/07/31 07:26:39;;;;;;;;;;;;;;;21.28;74.75;99779.75;1469006;88;20278;-88
2022/07/31 07:29:05;;;;;;;;;;;;;;;21.26;74.59;99779.69;1443069;88;20262;-87
2022/07/31 07:31:31;;;;;;;;;;;;;;;21.24;74.80;99785.31;1463475;88;20454;-88
2022/07/31 07:34:05;;;;;;;;;;;;;;;21.19;74.79;99788.69;1456380;88;20292;-88
2022/07/31 07:36:33;;;;;;;;;;;;;;;21.16;75.00;99784.31;1461897;88;20298;-88
2022/07/31 07:39:00;;;;;;;;;;;;;;;21.12;75.19;99781.80;1470507;88;20312;-88
2022/07/31 07:41:26;;;;;;;;;;;;;;;21.11;75.49;99785.53;1458988;88;20412;-88
2022/07/31 07:43:53;;;;;;;;;;;;;;;21.21;75.60;99776.90;1439298;88;20342;-88
2022/07/31 07:46:22;;;;;;;;;;;;;;;21.17;74.52;99778.68;1474715;88;20423;-88
2022/07/31 07:48:49;;;;;;;;;;;;;;;21.13;74.47;99778.86;1444206;88;20360;-88
2022/07/31 07:51:16;;;;;;;;;;;;;;;21.04;74.61;99782.95;1457684;88;20409;-88
2022/07/31 07:53:41;;;;;;;;;;;;;;;20.83;75.80;99778.10;1470803;88;20468;-88
2022/07/31 07:56:07;;;;;;;;;;;;;;;20.80;75.30;99780.75;1453973;88;20285;-88
2022/07/31 07:58:34;;;;;;;;;;;;;;;20.76;75.71;99778.22;1469396;88;20369;-87
2022/07/31 08:01:00;;;;;;;;;;;;;;;20.77;75.81;99778.50;1437735;89;20427;-88
2022/07/31 08:03:32;;;;;;;;;;;;;;;20.84;75.37;99781.11;1420602;91;20288;-88
2022/07/31 08:05:58;;;;;;;;;;;;;;;21.00;75.19;99778.25;1440434;89;20484;-87
2022/07/31 08:08:34;;;;;;;;;;;;;;;21.11;74.87;99773.42;1464560;88;20316;-88
2022/07/31 08:11:02;;;;;;;;;;;;;;;21.25;74.99;99769.98;1464639;88;20538;-87
2022/07/31 08:13:28;;;;;;;;;;;;;;;21.41;74.96;99767.98;1458706;88;20284;-87
2022/07/31 08:15:54;;;;;;;;;;;;;;;21.53;73.09;99771.47;1466225;88;20314;-87
2022/07/31 08:18:21;;;;;;;;;;;;;;;21.62;72.79;99771.94;1450933;88;20397;-86
2022/07/31 08:20:47;;;;;;;;;;;;;;;21.67;72.38;99769.36;1447239;90;20301;-87
2022/07/31 08:23:22;;;;;;;;;;;;;;;21.69;72.13;99765.06;1444999;90;20315;-86
2022/07/31 08:25:48;;;;;;;;;;;;;;;21.67;72.19;99772.05;1457253;88;20479;-87
2022/07/31 08:28:17;;;;;;;;;;;;;;;21.67;71.27;99775.28;1470821;88;20313;-87
2022/07/31 08:30:45;;;;;;;;;;;;;;;21.67;71.63;99779.31;1433362;89;20304;-88
2022/07/31 08:33:11;;;;;;;;;;;;;;;21.63;70.52;99782.45;1464249;89;20396;-87
2022/07/31 08:35:37;;;;;;;;;;;;;;;21.68;71.79;99766.95;1453429;88;20278;-87
2022/07/31 08:38:05;;;;;;;;;;;;;;;21.79;71.26;99762.07;1454330;88;20604;-86
2022/07/31 08:40:31;;;;;;;;;;;;;;;21.95;71.42;99760.52;1460611;88;20306;-87
2022/07/31 08:42:57;;;;;;;;;;;;;;;22.15;70.44;99759.27;1440989;87;20307;-87
2022/07/31 08:45:30;;;;;;;;;;;;;;;22.29;69.01;99755.27;1436929;89;20307;-86
2022/07/31 08:47:58;;;;;;;;;;;;;;;22.44;69.31;99760.96;1462190;88;20425;-86
2022/07/31 08:50:24;;;;;;;;;;;;;;;22.48;68.49;99762.64;1447186;88;20426;-87
2022/07/31 08:52:53;;;;;;;;;;;;;;;22.39;66.40;99766.78;1454639;88;20453;-87
2022/07/31 08:55:21;;;;;;;;;;;;;;;22.16;66.27;99769.02;1470276;88;20841;-87
2022/07/31 08:57:47;;;;;;;;;;;;;;;22.01;67.14;99769.00;1437075;90;20366;-88
2022/07/31 09:00:18;;;;;;;;;;;;;;;21.90;67.54;99775.23;1466673;88;20414;-86
2022/07/31 09:02:44;;;;;;;;;;;;;;;21.77;67.77;99768.75;1472090;88;20353;-86
2022/07/31 09:05:14;;;;;;;;;;;;;;;21.72;69.11;99778.06;1453468;88;20292;-88
2022/07/31 09:07:40;;;;;;;;;;;;;;;21.69;67.62;99787.42;1455638;88;20323;-88
2022/07/31 09:10:20;;;;;;;;;;;;;;;21.51;66.53;99782.19;1461947;88;20305;-88
2022/07/31 09:12:46;;;;;;;;;;;;;;;21.36;66.95;99779.94;1461283;88;20359;-87
2022/07/31 09:15:20;;;;;;;;;;;;;;;21.28;68.01;99786.48;1445721;89;20352;-87
2022/07/31 09:17:46;;;;;;;;;;;;;;;21.19;69.50;99789.23;1458286;88;20380;-86
2022/07/31 09:20:23;;;;;;;;;;;;;;;21.11;70.56;99789.03;1452140;88;20330;-87
2022/07/31 09:23:05;;;;;;;;;;;;;;;21.11;70.81;99786.34;1455144;89;20380;-87
2022/07/31 09:25:31;;;;;;;;;;;;;;;21.08;71.05;99785.46;1447923;89;20313;-87
2022/07/31 09:28:02;;;;;;;;;;;;;;;21.09;71.40;99779.55;1454866;89;20285;-87
2022/07/31 09:30:29;;;;;;;;;;;;;;;21.07;71.53;99783.02;1445618;89;20307;-87
2022/07/31 09:32:56;;;;;;;;;;;;;;;21.07;71.81;99787.05;1453363;88;20930;-87
2022/07/31 09:35:22;;;;;;;;;;;;;;;21.09;71.74;99792.50;1459318;88;20616;-87
2022/07/31 09:37:48;;;;;;;;;;;;;;;21.12;71.73;99790.69;1454248;89;20321;-87
2022/07/31 09:40:15;;;;;;;;;;;;;;;21.16;70.67;99792.38;1454898;88;20307;-87
2022/07/31 09:42:44;;;;;;;;;;;;;;;21.23;69.49;99790.92;1466490;88;20912;-86
2022/07/31 09:45:19;;;;;;;;;;;;;;;21.32;68.78;99784.12;1450844;90;20836;-86
2022/07/31 09:47:45;;;;;;;;;;;;;;;21.44;68.98;99785.53;1447010;88;20294;-87
2022/07/31 09:50:11;;;;;;;;;;;;;;;21.51;68.75;99778.95;1449028;89;20360;-88
2022/07/31 09:52:37;;;;;;;;;;;;;;;21.52;67.52;99786.00;1463124;88;20931;-87
2022/07/31 09:55:13;;;;;;;;;;;;;;;21.49;67.55;99786.47;1462558;89;20291;-88
2022/07/31 09:57:46;;;;;;;;;;;;;;;21.40;68.03;99786.51;1543596;89;20314;-87
2022/07/31 10:00:13;;;;;;;;;;;;;;;21.29;68.84;99789.98;1393187;89;20249;-87
2022/07/31 10:02:39;;;;;;;;;;;;;;;21.22;68.90;99787.94;1466007;88;20286;-87
2022/07/31 10:05:06;;;;;;;;;;;;;;;21.15;70.02;99793.45;1446269;89;20930;-87
2022/07/31 10:07:36;;;;;;;;;;;;;;;21.16;70.03;99792.38;1434041;89;21049;-87
2022/07/31 10:10:05;;;;;;;;;;;;;;;21.08;70.02;99796.22;1456122;88;20329;-87
2022/07/31 10:12:33;;;;;;;;;;;;;;;21.01;70.63;99792.83;1461149;88;20384;-87
2022/07/31 10:15:06;;;;;;;;;;;;;;;20.95;70.54;99794.58;1471759;88;20290;-87
2022/07/31 10:17:42;;;;;;;;;;;;;;;20.95;70.98;99800.48;1463122;88;20366;-87
2022/07/31 10:20:10;;;;;;;;;;;;;;;20.93;71.16;99795.86;1453833;89;20965;-88
2022/07/31 10:22:45;;;;;;;;;;;;;;;20.86;70.60;99802.69;1465963;88;20328;-87
2022/07/31 10:25:14;;;;;;;;;;;;;;;20.74;70.66;99801.81;1459318;89;20285;-87
2022/07/31 10:27:40;;;;;;;;;;;;;;;20.66;71.06;99802.98;1459249;88;20283;-87
2022/07/31 10:30:08;;;;;;;;;;;;;;;20.62;71.29;99808.50;1458911;88;20387;-86
2022/07/31 10:32:34;;;;;;;;;;;;;;;20.60;71.74;99806.59;1475079;88;20390;-87
2022/07/31 10:35:04;;;;;;;;;;;;;;;20.60;71.64;99806.59;1468856;88;20395;-87
2022/07/31 10:37:40;;;;;;;;;;;;;;;20.62;71.58;99809.84;1453148;89;20306;-86
2022/07/31 10:40:23;;;;;;;;;;;;;;;20.63;71.60;99808.82;1466371;88;20283;-87
2022/07/31 10:42:53;;;;;;;;;;;;;;;20.66;71.97;99804.33;1455096;89;20328;-87
2022/07/31 10:45:19;;;;;;;;;;;;;;;20.72;71.79;99800.72;1464996;89;20268;-89
2022/07/31 10:47:56;;;;;;;;;;;;;;;20.79;71.76;99802.48;1471363;88;20379;-89
2022/07/31 10:50:24;;;;;;;;;;;;;;;20.84;72.11;99805.31;1463640;88;20344;-88
2022/07/31 10:52:51;;;;;;;;;;;;;;;20.91;71.80;99806.02;1463326;88;20462;-88
2022/07/31 10:55:26;;;;;;;;;;;;;;;20.92;70.51;99812.52;1464592;88;20336;-88
2022/07/31 10:57:52;;;;;;;;;;;;;;;20.95;71.26;99807.21;1447528;89;20411;-89
2022/07/31 11:00:21;;;;;;;;;;;;;;;20.97;69.71;99811.81;1453379;89;20270;-89
2022/07/31 11:02:47;;;;;;;;;;;;;;;21.05;70.39;99815.52;1445800;88;20345;-90
2022/07/31 11:05:22;;;;;;;;;;;;;;;21.07;69.76;99812.61;1456802;88;20307;-88
2022/07/31 11:08:01;;;;;;;;;;;;;;;21.04;69.99;99813.08;1446501;89;20285;-88
2022/07/31 11:10:29;;;;;;;;;;;;;;;21.07;70.39;99816.65;1450394;88;20425;-89
2022/07/31 11:13:03;;;;;;;;;;;;;;;21.16;70.92;99815.25;1453725;89;20940;-89
2022/07/31 11:15:30;;;;;;;;;;;;;;;21.31;70.61;99817.48;1455704;89;20602;-89
2022/07/31 11:17:57;;;;;;;;;;;;;;;21.31;70.01;99822.34;1454585;88;20323;-88
2022/07/31 11:20:28;;;;;;;;;;;;;;;21.22;68.88;99825.62;1465329;88;20848;-89
2022/07/31 11:23:00;;;;;;;;;;;;;;;21.21;69.56;99818.61;1536295;88;20249;-90
2022/07/31 11:25:31;;;;;;;;;;;;;;;21.15;68.53;99824.39;1509982;86;20278;-89
2022/07/31 11:27:59;;;;;;;;;;;;;;;21.12;68.34;99820.81;1544129;88;20270;-89
2022/07/31 11:30:25;;;;;;;;;;;;;;;21.12;68.53;99821.63;1460838;89;20276;-89
2022/07/31 11:32:52;;;;;;;;;;;;;;;21.23;69.11;99820.52;1452928;89;20782;-89
2022/07/31 11:35:26;;;;;;;;;;;;;;;21.23;68.52;99825.90;1443344;88;20312;-89
2022/07/31 11:37:52;;;;;;;;;;;;;;;21.15;68.35;99833.27;1471201;88;20269;-88
2022/07/31 11:40:19;;;;;;;;;;;;;;;21.03;68.13;99834.28;1453995;89;20271;-89
2022/07/31 11:42:45;;;;;;;;;;;;;;;21.06;68.74;99831.98;1472202;88;20320;-89
2022/07/31 11:45:13;;;;;;;;;;;;;;;21.12;68.75;99828.89;1465459;88;20291;-88
2022/07/31 11:47:42;;;;;;;;;;;;;;;21.18;68.67;99830.12;1454323;88;20351;-88
2022/07/31 11:50:16;;;;;;;;;;;;;;;21.19;69.00;99831.75;1457695;89;20511;-87
2022/07/31 11:52:43;;;;;;;;;;;;;;;21.15;69.25;99834.63;1451661;88;20351;-89
2022/07/31 11:55:13;;;;;;;;;;;;;;;20.98;69.87;99824.23;1456473;88;20885;-90
2022/07/31 11:57:40;;;;;;;;;;;;;;;20.92;71.06;99827.84;1471159;88;21807;-89
2022/07/31 12:00:11;;;;;;;;;;;;;;;20.96;70.81;99827.14;1458984;89;20315;-89
2022/07/31 12:02:46;;;;;;;;;;;;;;;20.99;70.71;99825.05;1428642;91;20854;-89
2022/07/31 12:05:12;;;;;;;;;;;;;;;20.99;71.26;99826.39;1435926;90;20300;-89
2022/07/31 12:07:42;;;;;;;;;;;;;;;21.06;71.98;99825.75;1497510;89;20305;-89
2022/07/31 12:10:14;;;;;;;;;;;;;;;21.13;71.10;99834.02;1464670;89;20306;-89
2022/07/31 12:12:41;;;;;;;;;;;;;;;21.15;70.56;99827.89;1464884;88;20299;-88
2022/07/31 12:15:17;;;;;;;;;;;;;;;21.12;70.93;99837.77;1424516;91;20393;-89
2022/07/31 12:17:53;;;;;;;;;;;;;;;21.07;71.11;99836.30;1439675;90;20293;-89
2022/07/31 12:20:19;;;;;;;;;;;;;;;21.01;70.74;99839.91;1515596;90;20398;-89
2022/07/31 12:22:45;;;;;;;;;;;;;;;20.96;71.02;99837.08;1485874;90;20299;-88
2022/07/31 12:25:11;;;;;;;;;;;;;;;20.95;70.96;99840.83;1442190;90;20382;-88
2022/07/31 12:27:38;;;;;;;;;;;;;;;20.96;72.10;99838.43;1433485;91;20406;-89
2022/07/31 12:30:24;;;;;;;;;;;;;;;21.01;72.81;99833.19;1429058;91;20314;-89
2022/07/31 12:32:51;;;;;;;;;;;;;;;21.05;72.63;99830.31;1431098;90;20362;-89
2022/07/31 12:35:17;;;;;;;;;;;;;;;21.07;72.71;99838.17;1423775;91;20399;-89
2022/07/31 12:37:46;;;;;;;;;;;;;;;21.00;72.96;99838.25;1453628;88;20224;-89
2022/07/31 12:43:29;;;;;;;;;;;;;;;21.00;73.29;99836.09;1551927;88;20296;-88
2022/07/31 12:45:59;;;;;;;;;;;;;;;21.01;73.05;99837.22;1459101;88;20402;-88
2022/07/31 12:48:23;;;;;;;;;;;;;;;21.01;73.83;99830.50;1464281;88;20514;-89
2022/07/31 12:51:08;;;;;;;;;;;;;;;21.03;73.35;99831.59;1444107;89;20868;-89
2022/07/31 12:53:34;;;;;;;;;;;;;;;21.07;72.68;99829.57;1424102;90;20490;-90